createdAt,value
2023-04-19T00:01:30.355Z,10.65
2023-04-19T00:03:57.313Z,11.13
2023-04-19T00:06:24.685Z,10.68
2023-04-19T00:08:51.716Z,10.95
2023-04-19T00:11:18.457Z,11.30
2023-04-19T00:13:45.462Z,10.65
2023-04-19T00:16:12.261Z,10.60
2023-04-19T00:18:39.219Z,11.52
2023-04-19T00:21:06.388Z,11.10
2023-04-19T00:23:33.083Z,11.32
2023-04-19T00:26:03.939Z,11.82
2023-04-19T00:28:31.096Z,11.37
2023-04-19T00:30:58.141Z,11.55
2023-04-19T00:33:24.922Z,11.57
2023-04-19T00:35:51.810Z,11.05
2023-04-19T00:38:18.698Z,11.50
2023-04-19T00:40:46.695Z,11.75
2023-04-19T00:43:20.343Z,11.38
2023-04-19T00:45:48.533Z,11.63
2023-04-19T00:48:15.564Z,11.90
2023-04-19T00:50:44.803Z,11.95
2023-04-19T00:53:11.840Z,11.02
2023-04-19T00:55:42.604Z,12.05
2023-04-19T00:58:09.894Z,12.05
2023-04-19T01:00:37.515Z,12.57
2023-04-19T01:03:04.571Z,11.82
2023-04-19T01:05:31.451Z,12.07
2023-04-19T01:07:58.229Z,12.82
2023-04-19T01:10:25.260Z,12.20
2023-04-19T01:12:52.000Z,11.90
2023-04-19T01:15:18.805Z,12.68
2023-04-19T01:17:45.864Z,12.45
2023-04-19T01:20:13.583Z,13.27
2023-04-19T01:22:40.441Z,12.90
2023-04-19T01:25:07.729Z,13.43
2023-04-19T01:27:34.604Z,13.02
2023-04-19T01:30:01.261Z,12.52
2023-04-19T01:32:28.084Z,12.68
2023-04-19T01:34:54.822Z,12.57
2023-04-19T01:37:21.625Z,13.25
2023-04-19T01:39:48.390Z,13.27
2023-04-19T01:42:15.213Z,14.68
2023-04-19T01:44:42.016Z,14.10
2023-04-19T01:47:08.779Z,13.63
2023-04-19T01:49:35.755Z,14.05
2023-04-19T01:52:02.498Z,13.00
2023-04-19T01:54:29.240Z,13.98
2023-04-19T01:56:55.964Z,12.68
2023-04-19T01:59:22.709Z,12.65
2023-04-19T02:01:49.444Z,12.40
2023-04-19T02:04:16.340Z,12.00
2023-04-19T02:06:43.262Z,13.07
2023-04-19T02:09:09.971Z,13.07
2023-04-19T02:11:36.736Z,12.70
2023-04-19T02:14:03.444Z,13.65
2023-04-19T02:16:30.258Z,14.27
2023-04-19T02:18:57.008Z,13.52
2023-04-19T02:21:23.720Z,13.43
2023-04-19T02:23:50.764Z,13.80
2023-04-19T02:26:17.432Z,14.00
2023-04-19T02:28:44.116Z,14.00
2023-04-19T02:31:11.031Z,13.77
2023-04-19T02:33:37.758Z,14.60
2023-04-19T02:36:04.712Z,14.48
2023-04-19T02:38:31.392Z,14.10
2023-04-19T02:40:58.107Z,15.05
2023-04-19T02:43:25.007Z,14.90
2023-04-19T02:45:51.797Z,14.60
2023-04-19T02:48:18.596Z,14.57
2023-04-19T02:50:45.386Z,14.82
2023-04-19T02:53:12.131Z,14.93
2023-04-19T02:55:38.859Z,14.90
2023-04-19T02:58:05.613Z,14.13
2023-04-19T03:00:32.451Z,14.43
2023-04-19T03:02:59.392Z,14.95
2023-04-19T03:05:26.343Z,15.02
2023-04-19T03:07:53.085Z,14.45
2023-04-19T03:10:19.891Z,14.35
2023-04-19T03:12:46.632Z,15.63
2023-04-19T03:15:13.401Z,14.90
2023-04-19T03:17:40.536Z,14.68
2023-04-19T03:20:14.221Z,14.52
2023-04-19T03:22:40.955Z,14.70
2023-04-19T03:25:08.624Z,14.65
2023-04-19T03:27:36.771Z,14.32
2023-04-19T03:30:03.741Z,14.55
2023-04-19T03:32:31.907Z,14.05
2023-04-19T03:34:58.594Z,15.32
2023-04-19T03:37:25.273Z,15.55
2023-04-19T03:39:52.016Z,15.40
2023-04-19T03:42:18.799Z,14.73
2023-04-19T03:44:45.715Z,15.07
2023-04-19T03:47:12.502Z,14.82
2023-04-19T03:49:39.279Z,15.75
2023-04-19T03:52:05.999Z,14.70
2023-04-19T03:54:32.683Z,14.40
2023-04-19T03:56:59.624Z,14.85
2023-04-19T03:59:26.498Z,15.02
2023-04-19T04:01:53.293Z,14.57
2023-04-19T04:04:20.311Z,14.32
2023-04-19T04:06:47.386Z,16.08
2023-04-19T04:09:14.063Z,14.73
2023-04-19T04:11:40.715Z,14.75
2023-04-19T04:14:07.494Z,14.77
2023-04-19T04:16:34.224Z,15.32
2023-04-19T04:19:01.015Z,15.13
2023-04-19T04:21:28.174Z,14.82
2023-04-19T04:23:54.947Z,14.20
2023-04-19T04:26:22.020Z,13.88
2023-04-19T04:28:48.692Z,13.93
2023-04-19T04:31:18.033Z,14.43
2023-04-19T04:33:45.911Z,14.45
2023-04-19T04:36:12.867Z,14.27
2023-04-19T04:38:39.615Z,14.73
2023-04-19T04:41:06.402Z,14.60
2023-04-19T04:43:34.638Z,14.32
2023-04-19T04:46:01.921Z,14.40
2023-04-19T04:48:28.780Z,13.95
2023-04-19T04:50:55.612Z,14.43
2023-04-19T04:53:22.362Z,14.43
2023-04-19T04:55:49.069Z,14.07
2023-04-19T04:58:15.861Z,13.52
2023-04-19T05:00:42.829Z,13.48
2023-04-19T05:03:09.688Z,13.77
2023-04-19T05:05:36.585Z,13.32
2023-04-19T05:08:03.619Z,12.95
2023-04-19T05:10:30.384Z,12.50
2023-04-19T05:12:57.104Z,13.82
2023-04-19T05:15:23.938Z,12.70
2023-04-19T05:17:50.736Z,12.45
2023-04-19T05:20:17.511Z,12.32
2023-04-19T05:22:44.256Z,13.35
2023-04-19T05:25:11.622Z,12.73
2023-04-19T05:27:38.446Z,13.00
2023-04-19T05:30:06.618Z,12.30
2023-04-19T05:32:33.582Z,11.93
2023-04-19T05:35:00.339Z,12.50
2023-04-19T05:37:27.121Z,12.65
2023-04-19T05:39:53.824Z,12.85
2023-04-19T05:42:20.602Z,13.15
2023-04-19T05:44:47.331Z,12.60
2023-04-19T05:47:14.080Z,12.52
2023-04-19T05:49:42.024Z,13.52
2023-04-19T05:52:09.873Z,13.07
2023-04-19T05:54:36.675Z,13.07
2023-04-19T05:57:03.836Z,13.30
2023-04-19T05:59:30.678Z,11.65
2023-04-19T06:01:57.670Z,12.20
2023-04-19T06:04:25.038Z,11.70
2023-04-19T06:06:51.907Z,11.45
2023-04-19T06:09:18.759Z,11.57
2023-04-19T06:11:50.891Z,12.82
2023-04-19T06:14:18.635Z,11.57
2023-04-19T06:16:45.816Z,10.77
2023-04-19T06:19:12.570Z,10.85
2023-04-19T06:21:39.374Z,11.35
2023-04-19T06:24:07.386Z,10.70
2023-04-19T06:26:34.135Z,11.15
2023-04-19T06:29:01.268Z,10.30
2023-04-19T06:31:28.049Z,10.60
2023-04-19T06:33:54.819Z,11.13
2023-04-19T06:36:21.601Z,10.88
2023-04-19T06:38:49.928Z,10.85
2023-04-19T06:41:16.932Z,10.77
2023-04-19T06:43:44.744Z,11.60
2023-04-19T06:46:13.843Z,10.52
2023-04-19T06:48:40.964Z,10.48
2023-04-19T06:51:07.939Z,11.35
2023-04-19T06:53:35.697Z,10.00
2023-04-19T06:56:04.461Z,10.05
2023-04-19T06:58:35.380Z,11.05
2023-04-19T07:01:04.483Z,10.32
2023-04-19T07:03:31.899Z,10.60
2023-04-19T07:05:58.899Z,10.73
2023-04-19T07:08:32.262Z,10.32
2023-04-19T07:11:02.088Z,9.77
2023-04-19T07:13:28.809Z,10.10
2023-04-19T07:15:55.618Z,10.38
2023-04-19T07:18:22.379Z,10.30
2023-04-19T07:20:49.459Z,10.60
2023-04-19T07:23:16.323Z,9.93
2023-04-19T07:25:43.118Z,10.52
2023-04-19T07:28:09.926Z,10.10
2023-04-19T07:30:37.509Z,9.45
2023-04-19T07:33:04.980Z,9.35
2023-04-19T07:35:31.754Z,9.18
2023-04-19T07:37:58.479Z,9.88
2023-04-19T07:40:25.320Z,9.82
2023-04-19T07:42:52.038Z,8.95
2023-04-19T07:45:18.846Z,8.52
2023-04-19T07:47:45.684Z,8.90
2023-04-19T07:50:12.557Z,8.73
2023-04-19T07:52:39.503Z,8.82
2023-04-19T07:55:06.976Z,8.88
2023-04-19T07:57:35.468Z,8.77
2023-04-19T08:00:02.344Z,8.95
2023-04-19T08:02:29.142Z,8.18
2023-04-19T08:04:57.805Z,8.30
2023-04-19T08:07:26.102Z,8.52
2023-04-19T08:09:53.180Z,8.32
2023-04-19T08:12:34.511Z,8.82
2023-04-19T08:15:15.407Z,8.15
2023-04-19T08:17:54.590Z,8.30
2023-04-19T08:20:21.818Z,8.77
2023-04-19T08:22:48.575Z,8.52
2023-04-19T08:25:16.518Z,8.02
2023-04-19T08:27:43.290Z,7.93
2023-04-19T08:30:10.954Z,7.60
2023-04-19T08:32:38.075Z,8.10
2023-04-19T08:35:06.036Z,7.70
2023-04-19T08:37:32.724Z,7.97
2023-04-19T08:39:59.443Z,7.95
2023-04-19T08:42:35.656Z,7.93
2023-04-19T08:47:51.771Z,8.00
2023-04-19T08:50:32.473Z,7.45
2023-04-19T08:53:12.212Z,7.15
2023-04-19T08:56:07.021Z,6.72
2023-04-19T09:01:06.804Z,6.90
2023-04-19T09:03:44.023Z,6.25
2023-04-19T09:06:18.611Z,5.57
2023-04-19T09:08:45.556Z,5.50
2023-04-19T09:11:12.314Z,5.65
2023-04-19T09:13:40.551Z,5.75
2023-04-19T09:16:22.639Z,5.75
2023-04-19T09:19:05.469Z,5.35
2023-04-19T09:21:42.426Z,4.70
2023-04-19T09:24:09.236Z,5.30
2023-04-19T09:26:36.611Z,5.25
2023-04-19T09:29:05.430Z,5.00
2023-04-19T09:31:50.806Z,4.57
2023-04-19T09:34:19.823Z,5.10
2023-04-19T09:36:46.984Z,5.00
2023-04-19T09:39:14.601Z,4.97
2023-04-19T09:41:54.838Z,4.63
2023-04-19T09:44:53.074Z,4.68
2023-04-19T09:47:28.839Z,4.93
2023-04-19T09:50:21.764Z,5.03
2023-04-19T09:52:51.045Z,4.65
2023-04-19T09:57:48.547Z,4.00
2023-04-19T10:00:15.776Z,4.43
2023-04-19T10:02:43.568Z,4.68
2023-04-19T10:05:20.556Z,4.40
2023-04-19T10:07:49.511Z,3.85
2023-04-19T10:10:20.833Z,3.97
2023-04-19T10:13:11.463Z,4.32
2023-04-19T10:18:09.001Z,4.20
2023-04-19T10:20:45.893Z,4.18
2023-04-19T10:23:13.044Z,3.58
2023-04-19T10:25:39.753Z,3.70
2023-04-19T10:28:06.527Z,3.15
2023-04-19T10:30:33.402Z,3.30
2023-04-19T10:33:02.947Z,3.22
2023-04-19T10:35:38.292Z,3.28
2023-04-19T10:38:11.211Z,3.05
2023-04-19T10:40:56.995Z,3.33
2023-04-19T10:43:25.201Z,2.70
2023-04-19T10:45:52.770Z,3.10
2023-04-19T10:48:33.240Z,3.17
2023-04-19T10:51:03.662Z,2.72
2023-04-19T10:53:45.647Z,2.83
2023-04-19T10:56:12.702Z,2.60
2023-04-19T10:59:07.944Z,2.70
2023-04-19T11:01:43.468Z,2.60
2023-04-19T11:04:10.623Z,2.85
2023-04-19T11:06:39.153Z,2.60
2023-04-19T11:09:07.242Z,2.92
2023-04-19T11:11:35.809Z,2.65
2023-04-19T11:14:04.345Z,2.42
2023-04-19T11:16:44.872Z,2.20
2023-04-19T11:19:19.826Z,2.50
2023-04-19T11:21:47.272Z,2.25
2023-04-19T11:24:18.967Z,2.67
2023-04-19T11:26:47.138Z,2.40
2023-04-19T11:29:14.246Z,2.38
2023-04-19T11:31:44.124Z,2.90
2023-04-19T11:34:10.898Z,2.50
2023-04-19T11:36:51.301Z,2.67
2023-04-19T11:39:18.616Z,2.35
2023-04-19T11:41:47.202Z,2.72
2023-04-19T11:44:15.956Z,2.38
2023-04-19T11:46:43.871Z,2.55
2023-04-19T11:49:10.749Z,2.55
2023-04-19T11:51:42.379Z,2.30
2023-04-19T11:57:01.553Z,2.67
2023-04-19T11:59:29.118Z,2.58
2023-04-19T12:01:55.970Z,2.70
2023-04-19T12:04:23.451Z,2.85
2023-04-19T12:07:01.330Z,2.80
2023-04-19T12:09:28.131Z,2.58
2023-04-19T12:11:55.022Z,2.25
2023-04-19T12:14:23.274Z,2.38
2023-04-19T12:17:13.719Z,2.38
2023-04-19T12:19:47.687Z,2.50
2023-04-19T12:22:16.581Z,2.20
2023-04-19T12:24:43.649Z,2.50
2023-04-19T12:27:11.325Z,2.47
2023-04-19T12:29:39.064Z,2.42
2023-04-19T12:32:06.563Z,2.10
2023-04-19T12:34:33.412Z,2.53
2023-04-19T12:37:01.101Z,2.20
2023-04-19T12:39:28.838Z,2.22
2023-04-19T12:41:56.056Z,2.55
2023-04-19T12:44:23.283Z,2.40
2023-04-19T12:46:50.125Z,2.40
2023-04-19T12:49:20.271Z,2.38
2023-04-19T12:51:47.574Z,2.60
2023-04-19T12:54:15.260Z,2.70
2023-04-19T12:56:42.114Z,2.63
2023-04-19T12:59:08.859Z,2.25
2023-04-19T13:01:35.710Z,2.85
2023-04-19T13:04:03.052Z,2.70
2023-04-19T13:06:30.056Z,2.67
2023-04-19T13:09:00.447Z,2.60
2023-04-19T13:11:28.373Z,2.53
2023-04-19T13:13:55.201Z,2.88
2023-04-19T13:16:22.582Z,3.05
2023-04-19T13:18:50.848Z,2.60
2023-04-19T13:21:17.544Z,2.55
2023-04-19T13:23:45.069Z,2.20
2023-04-19T13:26:12.029Z,2.67
2023-04-19T13:28:39.775Z,3.40
2023-04-19T13:31:06.525Z,3.30
2023-04-19T13:33:33.420Z,3.65
2023-04-19T13:36:00.409Z,3.50
2023-04-19T13:38:27.158Z,3.10
2023-04-19T13:40:53.867Z,3.10
2023-04-19T13:43:21.406Z,3.22
2023-04-19T13:45:48.212Z,3.13
2023-04-19T13:48:14.959Z,3.55
2023-04-19T13:50:41.679Z,3.38
2023-04-19T13:53:08.560Z,3.65
2023-04-19T13:55:35.437Z,4.00
2023-04-19T13:58:02.172Z,3.40
2023-04-19T14:00:29.028Z,3.58
2023-04-19T14:02:56.897Z,3.53
2023-04-19T14:05:23.820Z,3.67
2023-04-19T14:07:50.564Z,3.67
2023-04-19T14:10:17.405Z,3.70
2023-04-19T14:12:45.016Z,3.72
2023-04-19T14:15:12.307Z,3.85
2023-04-19T14:17:39.181Z,3.88
2023-04-19T14:20:07.586Z,3.67
2023-04-19T14:22:35.406Z,4.18
2023-04-19T14:25:03.669Z,4.07
2023-04-19T14:27:30.637Z,3.67
2023-04-19T14:29:57.451Z,3.33
2023-04-19T14:32:26.523Z,3.15
2023-04-19T14:34:55.187Z,3.60
2023-04-19T14:37:23.348Z,2.95
2023-04-19T14:39:50.164Z,3.65
2023-04-19T14:42:16.943Z,3.10
2023-04-19T14:44:43.938Z,3.30
2023-04-19T14:47:10.980Z,3.35
2023-04-19T14:49:37.762Z,3.40
2023-04-19T14:52:04.973Z,3.38
2023-04-19T14:54:31.708Z,3.92
2023-04-19T14:56:58.417Z,3.40
2023-04-19T14:59:25.302Z,3.53
2023-04-19T15:01:52.131Z,3.50
2023-04-19T15:04:19.170Z,3.60
2023-04-19T15:06:46.226Z,3.35
2023-04-19T15:09:13.116Z,3.78
2023-04-19T15:11:39.846Z,3.10
2023-04-19T15:14:06.645Z,3.35
2023-04-19T15:16:33.607Z,3.55
2023-04-19T15:19:02.043Z,3.60
2023-04-19T15:21:29.256Z,3.45
2023-04-19T15:23:55.985Z,3.65
2023-04-19T15:26:23.745Z,3.50
2023-04-19T15:28:50.438Z,3.75
2023-04-19T15:31:17.564Z,3.50
2023-04-19T15:33:44.354Z,3.20
2023-04-19T15:36:11.131Z,3.03
2023-04-19T15:38:38.073Z,3.38
2023-04-19T15:41:05.161Z,3.00
2023-04-19T15:43:31.982Z,3.20
2023-04-19T15:45:58.721Z,3.83
2023-04-19T15:48:26.110Z,3.03
2023-04-19T15:50:52.824Z,3.22
2023-04-19T15:53:19.516Z,3.15
2023-04-19T15:55:47.974Z,2.85
2023-04-19T15:58:15.212Z,3.10
2023-04-19T16:00:41.924Z,3.20
2023-04-19T16:03:11.608Z,3.33
2023-04-19T16:05:38.539Z,3.20
2023-04-19T16:08:07.764Z,3.33
2023-04-19T16:10:34.975Z,3.17
2023-04-19T16:13:03.409Z,3.17
2023-04-19T16:15:30.372Z,3.40
2023-04-19T16:17:57.137Z,3.17
2023-04-19T16:20:24.106Z,3.25
2023-04-19T16:22:50.884Z,3.60
2023-04-19T16:25:17.761Z,3.75
2023-04-19T16:27:45.823Z,3.53
2023-04-19T16:30:14.577Z,3.88
2023-04-19T16:32:42.001Z,3.75
2023-04-19T16:35:09.496Z,4.10
2023-04-19T16:37:36.499Z,4.28
2023-04-19T16:40:09.758Z,4.25
2023-04-19T16:42:38.253Z,4.32
2023-04-19T16:45:06.222Z,4.30
2023-04-19T16:47:33.646Z,4.43
2023-04-19T16:50:01.259Z,4.57
2023-04-19T16:52:29.777Z,4.55
2023-04-19T16:54:56.571Z,4.43
2023-04-19T16:57:23.735Z,5.10
2023-04-19T16:59:50.780Z,4.82
2023-04-19T17:02:17.979Z,4.82
2023-04-19T17:04:44.902Z,4.60
2023-04-19T17:07:12.448Z,4.95
2023-04-19T17:09:39.278Z,5.25
2023-04-19T17:12:06.377Z,5.38
2023-04-19T17:14:35.170Z,4.90
2023-04-19T17:17:02.018Z,5.05
2023-04-19T17:19:28.834Z,5.00
2023-04-19T17:21:55.716Z,5.25
2023-04-19T17:24:22.548Z,4.90
2023-04-19T17:26:50.037Z,5.03
2023-04-19T17:29:17.058Z,5.20
2023-04-19T17:31:44.042Z,5.25
2023-04-19T17:34:11.036Z,5.07
2023-04-19T17:36:37.761Z,4.53
2023-04-19T17:39:06.526Z,5.50
2023-04-19T17:41:33.564Z,4.80
2023-04-19T17:44:00.506Z,5.13
2023-04-19T17:46:27.310Z,4.78
2023-04-19T17:48:55.428Z,5.50
2023-04-19T17:51:22.501Z,5.32
2023-04-19T17:53:49.276Z,5.57
2023-04-19T17:56:16.035Z,5.13
2023-04-19T17:58:42.857Z,5.20
2023-04-19T18:01:10.487Z,5.25
2023-04-19T18:03:37.921Z,4.95
2023-04-19T18:06:04.962Z,5.68
2023-04-19T18:08:31.722Z,5.47
2023-04-19T18:10:58.723Z,5.70
2023-04-19T18:13:25.718Z,5.68
2023-04-19T18:15:52.537Z,5.63
2023-04-19T18:18:19.322Z,5.30
2023-04-19T18:20:46.062Z,5.82
2023-04-19T18:23:12.804Z,5.38
2023-04-19T18:25:39.691Z,5.95
2023-04-19T18:28:06.655Z,5.45
2023-04-19T18:30:33.800Z,5.50
2023-04-19T18:33:00.676Z,5.65
2023-04-19T18:35:27.521Z,5.82
2023-04-19T18:37:54.244Z,6.05
2023-04-19T18:40:21.105Z,6.20
2023-04-19T18:42:47.889Z,5.65
2023-04-19T18:45:15.065Z,5.57
2023-04-19T18:47:41.981Z,5.03
2023-04-19T18:50:09.545Z,5.40
2023-04-19T18:52:37.452Z,5.30
2023-04-19T18:55:05.846Z,5.45
2023-04-19T18:57:34.909Z,5.40
2023-04-19T19:00:02.655Z,5.10
2023-04-19T19:02:29.615Z,5.28
2023-04-19T19:05:01.350Z,5.15
2023-04-19T19:10:01.673Z,5.57
2023-04-19T19:12:29.131Z,5.40
2023-04-19T19:14:56.037Z,5.03
2023-04-19T19:17:24.313Z,4.68
2023-04-19T19:19:51.283Z,4.70
2023-04-19T19:22:27.836Z,4.57
2023-04-19T19:24:55.472Z,4.80
2023-04-19T19:27:22.304Z,4.25
2023-04-19T19:29:49.112Z,3.90
2023-04-19T19:32:16.090Z,4.03
2023-04-19T19:34:53.839Z,3.80
2023-04-19T19:37:22.113Z,4.25
2023-04-19T19:39:49.047Z,4.05
2023-04-19T19:42:16.802Z,4.18
2023-04-19T19:44:43.839Z,4.10
2023-04-19T19:47:11.310Z,3.53
2023-04-19T19:52:08.037Z,3.70
2023-04-19T19:54:34.872Z,4.00
2023-04-19T19:59:34.872Z,4.03
2023-04-19T20:02:03.685Z,3.97
2023-04-19T20:04:31.702Z,4.05
2023-04-19T20:09:28.346Z,3.47
2023-04-19T20:11:55.135Z,3.92
2023-04-19T20:14:23.751Z,4.15
2023-04-19T20:16:51.821Z,3.50
2023-04-19T20:19:19.425Z,4.32
2023-04-19T20:21:47.074Z,4.00
2023-04-19T20:24:14.052Z,3.80
2023-04-19T20:26:40.889Z,3.53
2023-04-19T20:29:07.885Z,4.28
2023-04-19T20:31:34.671Z,4.07
2023-04-19T20:34:01.447Z,4.13
2023-04-19T20:36:28.421Z,3.50
2023-04-19T20:38:56.951Z,4.35
2023-04-19T20:41:23.680Z,3.55
2023-04-19T20:43:50.754Z,3.90
2023-04-19T20:46:17.577Z,3.90
2023-04-19T20:48:44.326Z,3.65
2023-04-19T20:51:12.731Z,3.80
2023-04-19T20:53:39.439Z,3.63
2023-04-19T20:56:06.183Z,3.97
2023-04-19T20:58:33.683Z,4.20
2023-04-19T21:01:00.683Z,3.97
2023-04-19T21:03:27.701Z,3.88
2023-04-19T21:05:54.553Z,4.03
2023-04-19T21:08:23.450Z,3.80
2023-04-19T21:10:50.219Z,4.07
2023-04-19T21:13:16.898Z,3.80
2023-04-19T21:15:43.615Z,3.90
2023-04-19T21:18:10.366Z,4.18
2023-04-19T21:20:37.801Z,3.80
2023-04-19T21:23:04.568Z,3.70
2023-04-19T21:25:31.479Z,3.50
2023-04-19T21:27:58.199Z,3.72
2023-04-19T21:30:25.687Z,3.63
2023-04-19T21:32:52.931Z,3.72
2023-04-19T21:35:19.948Z,3.58
2023-04-19T21:37:46.733Z,3.60
2023-04-19T21:40:13.622Z,3.72
2023-04-19T21:42:40.504Z,3.67
2023-04-19T21:45:07.734Z,4.05
2023-04-19T21:47:34.605Z,3.75
2023-04-19T21:50:01.468Z,3.40
2023-04-19T21:52:28.213Z,4.13
2023-04-19T21:54:55.028Z,3.90
2023-04-19T21:57:25.252Z,3.55
2023-04-19T21:59:51.969Z,3.90
2023-04-19T22:02:18.968Z,4.10
2023-04-19T22:04:45.772Z,3.30
2023-04-19T22:07:12.571Z,4.00
2023-04-19T22:09:39.854Z,3.65
2023-04-19T22:12:06.897Z,4.13
2023-04-19T22:14:33.672Z,3.75
2023-04-19T22:17:02.518Z,3.80
2023-04-19T22:19:29.624Z,3.95
2023-04-19T22:21:56.838Z,4.28
2023-04-19T22:24:23.764Z,3.75
2023-04-19T22:26:50.891Z,3.75
2023-04-19T22:29:18.101Z,4.07
2023-04-19T22:31:45.166Z,3.78
2023-04-19T22:34:11.946Z,3.65
2023-04-19T22:36:38.678Z,3.92
2023-04-19T22:39:05.516Z,3.85
2023-04-19T22:41:33.428Z,3.53
2023-04-19T22:44:00.479Z,3.78
2023-04-19T22:46:27.515Z,4.15
2023-04-19T22:48:56.031Z,3.78
2023-04-19T22:51:24.429Z,3.80
2023-04-19T22:53:51.207Z,3.60
2023-04-19T22:56:17.955Z,3.50
2023-04-19T22:58:44.792Z,3.72
2023-04-19T23:01:11.547Z,3.65
2023-04-19T23:03:38.448Z,3.67
2023-04-19T23:06:05.306Z,3.47
2023-04-19T23:08:33.346Z,3.22
2023-04-19T23:11:00.407Z,3.83
2023-04-19T23:13:28.459Z,3.63
2023-04-19T23:15:55.227Z,3.33
2023-04-19T23:18:22.071Z,3.25
2023-04-19T23:20:48.773Z,3.60
2023-04-19T23:23:15.577Z,3.40
2023-04-19T23:25:42.546Z,3.75
2023-04-19T23:28:11.910Z,3.38
2023-04-19T23:30:39.311Z,3.50
2023-04-19T23:33:06.248Z,3.35
2023-04-19T23:35:33.091Z,2.83
2023-04-19T23:38:00.302Z,3.45
2023-04-19T23:40:27.063Z,3.10
2023-04-19T23:42:53.752Z,3.33
2023-04-19T23:45:20.800Z,3.22
2023-04-19T23:47:47.641Z,3.10
2023-04-19T23:50:14.385Z,3.10
2023-04-19T23:52:41.222Z,3.15
2023-04-19T23:55:08.251Z,2.92
2023-04-19T23:57:35.828Z,3.38
